Home   Weather   Romania   Cluj-Napoca   Past weeks
Flag for Romania

Past Weather in Cluj-Napoca, Romania — Yesterday and Last 2 Weeks

Currently: 84 °F. Scattered clouds. (Weather station: Cluj Airport-Napoca, Romania). See more current weather

Past Weather in Cluj-Napoca — Graph

°F

Cluj-Napoca Temperature Yesterday

Maximum temperature yesterday: 86 °F (at 2:00 pm)
Minimum temperature yesterday: 54 °F (at 4:30 am)
Average temperature yesterday: 72 °F

High & Low Weather Summary for the Past Weeks

 TemperatureHumidityPressure
High86 °F (Jun 20, 3:00 pm)100% (Jun 13, 4:30 am)30.18 "Hg (Jun 13, 4:30 am)
Low48 °F (Jun 16, 6:30 am)10% (Jun 21, 6:00 pm)29.77 "Hg (Jun 21, 4:00 am)
Average68 °F57%30.00 "Hg
* Reported Jun 11 3:00 pm — Jun 26 3:00 pm, Cluj-Napoca. Weather by CustomWeather, © 2022

Note: Actual official high and low records may vary slightly from our data, if they occured in-between our weather recording intervals... More about our weather records

Cluj-Napoca Weather History for the Previous 24 Hours

Scroll right to see more
 ConditionsComfort  
Time TempWeatherWind HumidityBarometerVisibility
3:00 pm
Sun, Jun 26
84 °FPassing clouds.5 mph35%30.01 "HgN/A
2:30 pm82 °FPassing clouds.5 mph37%30.01 "HgN/A
2:00 pm81 °FPassing clouds.5 mph42%30.01 "HgN/A
1:30 pm77 °FPassing clouds.3 mph47%30.04 "HgN/A
1:00 pm77 °FPassing clouds.3 mph47%30.04 "HgN/A
12:30 pm77 °FPassing clouds.3 mph47%30.04 "HgN/A
11:30 am75 °FPassing clouds.5 mph47%30.04 "HgN/A
11:00 am73 °FPassing clouds.6 mph50%30.04 "HgN/A
10:30 am72 °FSunny.7 mph53%30.01 "Hg10 mi
10:00 am70 °FSunny.7 mph60%30.01 "Hg10 mi
9:30 am68 °FPassing clouds.3 mph69%30.01 "HgN/A
9:00 am68 °FSunny.2 mph69%30.01 "Hg10 mi
8:30 am64 °FSunny.1 mph78%30.01 "Hg10 mi
8:00 am64 °FSunny.1 mph78%30.01 "Hg10 mi
7:30 am63 °FSunny.3 mph83%30.01 "Hg10 mi
7:00 am61 °FSunny.6 mph83%30.01 "Hg10 mi
6:30 am63 °FSunny.3 mph77%29.98 "Hg10 mi
6:00 am61 °FSunny.3 mph83%29.98 "Hg10 mi
5:30 am61 °FClear.1 mph83%29.98 "Hg10 mi
5:00 am61 °FClear.2 mph83%29.98 "Hg10 mi
4:00 am63 °FClear.2 mph77%29.98 "Hg10 mi
2:30 am64 °FClear.2 mph68%29.95 "Hg10 mi
2:00 am64 °FClear.2 mph68%29.95 "Hg10 mi
1:30 am64 °FClear.1 mph73%29.95 "Hg10 mi
1:00 am66 °FClear.2 mph68%29.95 "Hg10 mi
12:30 am70 °FPassing clouds.3 mph57%29.95 "HgN/A
12:00 am70 °FClear.2 mph57%29.95 "Hg10 mi
11:30 pm
Sat, Jun 25
70 °FPassing clouds.6 mph60%29.92 "HgN/A
11:00 pm73 °FClear.5 mph50%29.92 "Hg10 mi
10:00 pm79 °FClear.3 mph42%29.92 "Hg10 mi
9:30 pm75 °FClear.2 mph50%29.89 "Hg10 mi
9:00 pm79 °FSunny.1 mph42%29.89 "Hg10 mi
8:00 pm82 °FSunny.3 mph32%29.89 "Hg10 mi
7:30 pm82 °FSunny.6 mph32%29.89 "Hg10 mi
7:00 pm82 °FPassing clouds.6 mph30%29.89 "HgN/A
6:30 pm84 °FSunny.No wind27%29.89 "Hg10 mi
6:00 pm86 °FPassing clouds.5 mph25%29.89 "HgN/A
5:00 pm84 °FPassing clouds.5 mph27%29.89 "HgN/A
4:30 pm84 °FPassing clouds.7 mph27%29.89 "HgN/A
4:00 pm84 °FPassing clouds.3 mph27%29.92 "HgN/A
Weather by CustomWeather, © 2022

See weather overview